Acampo, California
Current Conditions -  °F | °C
As of 1:55 AM on Wednesday 22 Oct 2014 (Local Time) from KSCK Reporting Station
Clear Clear  
Wind Chill: 54°   Ceiling: Unl
Heat Index: 54°   Visibility: 10mi
Dew Point: 47°   Wind: 0mph
Humidity: 77%   Direction: NA
Pressure: 30.03"   Gusts: NA
Location:  38.17°N, 121.28°W
Report Text: KSCK 220855Z AUTO 00000KT 10SM CLR 12/08 A3003 RMK AO2 SLP169 T01220083 51005
Loading
Personal Weather Stations






























Interactive Weather Map
Tropical Storm Tracking
New forecast layout! Learn more

10-Day Weather Forecast

Advertisements
Track Severe Weather on mobile